sensor_id;sensor_type;location;lat;lon;timestamp;temperature;humidity
20284;DHT22;10301;50.832;4.080;2023-05-29T00:00:32;14.80;35.70
20284;DHT22;10301;50.832;4.080;2023-05-29T00:02:58;14.50;52.60
20284;DHT22;10301;50.832;4.080;2023-05-29T00:05:24;14.40;51.10
20284;DHT22;10301;50.832;4.080;2023-05-29T00:07:50;14.20;62.20
20284;DHT22;10301;50.832;4.080;2023-05-29T00:10:16;14.30;66.20
20284;DHT22;10301;50.832;4.080;2023-05-29T00:12:42;14.30;63.40
20284;DHT22;10301;50.832;4.080;2023-05-29T00:15:08;14.10;71.20
20284;DHT22;10301;50.832;4.080;2023-05-29T00:17:35;14.10;76.00
20284;DHT22;10301;50.832;4.080;2023-05-29T00:20:02;14.10;71.20
20284;DHT22;10301;50.832;4.080;2023-05-29T00:22:32;14.10;69.00
20284;DHT22;10301;50.832;4.080;2023-05-29T00:24:57;14.40;59.30
20284;DHT22;10301;50.832;4.080;2023-05-29T00:27:23;14.30;55.20
20284;DHT22;10301;50.832;4.080;2023-05-29T00:29:49;14.40;55.00
20284;DHT22;10301;50.832;4.080;2023-05-29T00:32:15;14.20;62.00
20284;DHT22;10301;50.832;4.080;2023-05-29T00:34:40;14.10;69.70
20284;DHT22;10301;50.832;4.080;2023-05-29T00:37:06;13.90;77.40
20284;DHT22;10301;50.832;4.080;2023-05-29T00:39:32;13.90;81.10
20284;DHT22;10301;50.832;4.080;2023-05-29T00:41:57;14.00;72.70
20284;DHT22;10301;50.832;4.080;2023-05-29T00:44:23;13.90;74.90
20284;DHT22;10301;50.832;4.080;2023-05-29T00:46:51;13.80;83.10
20284;DHT22;10301;50.832;4.080;2023-05-29T00:49:22;13.80;78.50
20284;DHT22;10301;50.832;4.080;2023-05-29T00:51:49;13.70;81.60
20284;DHT22;10301;50.832;4.080;2023-05-29T00:54:21;13.70;87.70
20284;DHT22;10301;50.832;4.080;2023-05-29T00:56:47;13.60;88.40
20284;DHT22;10301;50.832;4.080;2023-05-29T00:59:13;13.50;90.00
20284;DHT22;10301;50.832;4.080;2023-05-29T01:01:40;13.50;91.50
20284;DHT22;10301;50.832;4.080;2023-05-29T01:04:06;13.40;91.70
20284;DHT22;10301;50.832;4.080;2023-05-29T01:06:35;13.40;90.20
20284;DHT22;10301;50.832;4.080;2023-05-29T01:09:01;13.50;90.10
20284;DHT22;10301;50.832;4.080;2023-05-29T01:11:44;13.50;86.20
20284;DHT22;10301;50.832;4.080;2023-05-29T01:14:23;13.60;80.40
20284;DHT22;10301;50.832;4.080;2023-05-29T01:17:14;13.30;91.20
20284;DHT22;10301;50.832;4.080;2023-05-29T01:22:41;13.30;92.60
20284;DHT22;10301;50.832;4.080;2023-05-29T01:25:20;13.00;93.90
20284;DHT22;10301;50.832;4.080;2023-05-29T01:27:47;13.00;94.30
20284;DHT22;10301;50.832;4.080;2023-05-29T01:30:15;13.10;94.40
20284;DHT22;10301;50.832;4.080;2023-05-29T01:32:41;13.10;93.80
20284;DHT22;10301;50.832;4.080;2023-05-29T01:35:07;13.20;91.80
20284;DHT22;10301;50.832;4.080;2023-05-29T01:37:33;13.10;91.80
20284;DHT22;10301;50.832;4.080;2023-05-29T01:39:59;13.10;91.70
20284;DHT22;10301;50.832;4.080;2023-05-29T01:42:27;12.90;93.20
20284;DHT22;10301;50.832;4.080;2023-05-29T01:44:54;12.90;95.40
20284;DHT22;10301;50.832;4.080;2023-05-29T01:47:21;12.80;95.00
20284;DHT22;10301;50.832;4.080;2023-05-29T01:49:48;12.70;96.00
20284;DHT22;10301;50.832;4.080;2023-05-29T01:52:14;12.60;96.80
20284;DHT22;10301;50.832;4.080;2023-05-29T01:54:40;12.60;96.70
20284;DHT22;10301;50.832;4.080;2023-05-29T01:57:06;12.50;96.90
20284;DHT22;10301;50.832;4.080;2023-05-29T01:59:33;12.50;97.10
20284;DHT22;10301;50.832;4.080;2023-05-29T02:02:10;12.40;97.00
20284;DHT22;10301;50.832;4.080;2023-05-29T02:04:37;12.50;97.00
20284;DHT22;10301;50.832;4.080;2023-05-29T02:07:03;12.60;96.20
20284;DHT22;10301;50.832;4.080;2023-05-29T02:09:29;12.60;94.50
20284;DHT22;10301;50.832;4.080;2023-05-29T02:11:56;12.50;95.60
20284;DHT22;10301;50.832;4.080;2023-05-29T02:14:21;12.50;96.40
20284;DHT22;10301;50.832;4.080;2023-05-29T02:16:50;12.40;95.80
20284;DHT22;10301;50.832;4.080;2023-05-29T02:19:18;12.40;95.20
20284;DHT22;10301;50.832;4.080;2023-05-29T02:21:44;12.40;95.60
20284;DHT22;10301;50.832;4.080;2023-05-29T02:24:09;12.40;94.70
20284;DHT22;10301;50.832;4.080;2023-05-29T02:26:35;12.30;93.70
20284;DHT22;10301;50.832;4.080;2023-05-29T02:29:03;12.30;93.70
20284;DHT22;10301;50.832;4.080;2023-05-29T02:31:32;12.30;94.10
20284;DHT22;10301;50.832;4.080;2023-05-29T02:33:58;12.40;93.50
20284;DHT22;10301;50.832;4.080;2023-05-29T02:36:23;12.30;90.80
20284;DHT22;10301;50.832;4.080;2023-05-29T02:38:49;12.20;89.90
20284;DHT22;10301;50.832;4.080;2023-05-29T02:41:15;12.10;85.10
20284;DHT22;10301;50.832;4.080;2023-05-29T02:43:40;12.00;79.20
20284;DHT22;10301;50.832;4.080;2023-05-29T02:46:06;11.90;79.60
20284;DHT22;10301;50.832;4.080;2023-05-29T02:48:31;11.90;78.90
20284;DHT22;10301;50.832;4.080;2023-05-29T02:50:57;11.90;79.70
20284;DHT22;10301;50.832;4.080;2023-05-29T02:53:23;11.90;79.80
20284;DHT22;10301;50.832;4.080;2023-05-29T02:55:49;11.80;76.10
20284;DHT22;10301;50.832;4.080;2023-05-29T02:58:16;11.70;77.20
20284;DHT22;10301;50.832;4.080;2023-05-29T03:00:42;11.70;79.80
20284;DHT22;10301;50.832;4.080;2023-05-29T03:03:07;11.60;82.40
20284;DHT22;10301;50.832;4.080;2023-05-29T03:05:34;11.60;82.20
20284;DHT22;10301;50.832;4.080;2023-05-29T03:07:59;11.50;81.00
20284;DHT22;10301;50.832;4.080;2023-05-29T03:10:25;11.50;81.50
20284;DHT22;10301;50.832;4.080;2023-05-29T03:12:51;11.50;81.30
20284;DHT22;10301;50.832;4.080;2023-05-29T03:15:17;11.40;81.30
20284;DHT22;10301;50.832;4.080;2023-05-29T03:17:45;11.50;80.30
20284;DHT22;10301;50.832;4.080;2023-05-29T03:20:11;11.40;74.90
20284;DHT22;10301;50.832;4.080;2023-05-29T03:22:37;11.30;76.50
20284;DHT22;10301;50.832;4.080;2023-05-29T03:25:03;11.30;76.30
20284;DHT22;10301;50.832;4.080;2023-05-29T03:27:29;11.10;79.00
20284;DHT22;10301;50.832;4.080;2023-05-29T03:29:56;11.30;78.00
20284;DHT22;10301;50.832;4.080;2023-05-29T03:32:21;11.20;71.00
20284;DHT22;10301;50.832;4.080;2023-05-29T03:34:47;11.10;73.30
20284;DHT22;10301;50.832;4.080;2023-05-29T03:37:13;11.00;73.10
20284;DHT22;10301;50.832;4.080;2023-05-29T03:39:39;11.00;73.90
20284;DHT22;10301;50.832;4.080;2023-05-29T03:42:05;11.10;68.80
20284;DHT22;10301;50.832;4.080;2023-05-29T03:44:31;11.10;66.20
20284;DHT22;10301;50.832;4.080;2023-05-29T03:46:56;11.10;66.60
20284;DHT22;10301;50.832;4.080;2023-05-29T03:49:22;11.00;63.80
20284;DHT22;10301;50.832;4.080;2023-05-29T03:51:49;11.00;66.60
20284;DHT22;10301;50.832;4.080;2023-05-29T03:54:15;11.10;63.60
20284;DHT22;10301;50.832;4.080;2023-05-29T03:56:41;11.00;61.90
20284;DHT22;10301;50.832;4.080;2023-05-29T03:59:06;11.00;59.40
20284;DHT22;10301;50.832;4.080;2023-05-29T04:01:32;11.10;54.40
20284;DHT22;10301;50.832;4.080;2023-05-29T04:03:58;11.10;52.80
20284;DHT22;10301;50.832;4.080;2023-05-29T04:06:23;11.10;53.80
20284;DHT22;10301;50.832;4.080;2023-05-29T04:08:49;11.10;49.40
20284;DHT22;10301;50.832;4.080;2023-05-29T04:11:15;11.00;48.20
20284;DHT22;10301;50.832;4.080;2023-05-29T04:13:41;11.00;51.30
20284;DHT22;10301;50.832;4.080;2023-05-29T04:16:07;11.00;47.70
20284;DHT22;10301;50.832;4.080;2023-05-29T04:18:33;11.00;45.10
20284;DHT22;10301;50.832;4.080;2023-05-29T04:20:59;11.10;40.80
20284;DHT22;10301;50.832;4.080;2023-05-29T04:23:24;11.10;38.20
20284;DHT22;10301;50.832;4.080;2023-05-29T04:25:50;11.10;36.20
20284;DHT22;10301;50.832;4.080;2023-05-29T04:28:17;11.10;32.20
20284;DHT22;10301;50.832;4.080;2023-05-29T04:30:42;11.10;33.70
20284;DHT22;10301;50.832;4.080;2023-05-29T04:33:08;11.10;33.00
20284;DHT22;10301;50.832;4.080;2023-05-29T04:35:38;11.10;33.80
20284;DHT22;10301;50.832;4.080;2023-05-29T04:38:03;11.10;32.70
20284;DHT22;10301;50.832;4.080;2023-05-29T04:40:30;11.30;30.00
20284;DHT22;10301;50.832;4.080;2023-05-29T04:42:57;11.30;25.20
20284;DHT22;10301;50.832;4.080;2023-05-29T04:45:26;11.40;18.20
20284;DHT22;10301;50.832;4.080;2023-05-29T04:47:51;11.40;19.50
20284;DHT22;10301;50.832;4.080;2023-05-29T04:50:19;11.50;17.70
20284;DHT22;10301;50.832;4.080;2023-05-29T04:52:44;11.60;9.60
20284;DHT22;10301;50.832;4.080;2023-05-29T04:55:10;11.70;1.00
20284;DHT22;10301;50.832;4.080;2023-05-29T04:57:36;11.60;1.00
20284;DHT22;10301;50.832;4.080;2023-05-29T05:00:02;11.40;11.70
20284;DHT22;10301;50.832;4.080;2023-05-29T05:02:32;11.40;10.70
20284;DHT22;10301;50.832;4.080;2023-05-29T05:04:58;11.50;15.80
20284;DHT22;10301;50.832;4.080;2023-05-29T05:07:27;11.50;8.30
20284;DHT22;10301;50.832;4.080;2023-05-29T05:09:52;11.50;9.10
20284;DHT22;10301;50.832;4.080;2023-05-29T05:12:18;11.70;1.00
20284;DHT22;10301;50.832;4.080;2023-05-29T05:14:44;11.70;1.00
20284;DHT22;10301;50.832;4.080;2023-05-29T05:17:09;11.70;1.00
20284;DHT22;10301;50.832;4.080;2023-05-29T05:19:35;12.00;1.00
20284;DHT22;10301;50.832;4.080;2023-05-29T05:22:01;12.00;1.00
20284;DHT22;10301;50.832;4.080;2023-05-29T05:24:26;12.10;1.00
20284;DHT22;10301;50.832;4.080;2023-05-29T05:26:52;12.20;1.00
20284;DHT22;10301;50.832;4.080;2023-05-29T05:29:18;12.20;1.00
20284;DHT22;10301;50.832;4.080;2023-05-29T05:31:44;12.20;1.00
20284;DHT22;10301;50.832;4.080;2023-05-29T05:34:09;12.50;1.00
20284;DHT22;10301;50.832;4.080;2023-05-29T05:36:35;12.60;1.00
20284;DHT22;10301;50.832;4.080;2023-05-29T05:39:02;12.60;1.00
20284;DHT22;10301;50.832;4.080;2023-05-29T05:41:28;12.40;1.00
20284;DHT22;10301;50.832;4.080;2023-05-29T05:43:53;12.40;1.00
20284;DHT22;10301;50.832;4.080;2023-05-29T05:46:19;12.50;1.00
20284;DHT22;10301;50.832;4.080;2023-05-29T05:48:45;12.60;1.00
20284;DHT22;10301;50.832;4.080;2023-05-29T05:51:11;12.70;1.00
20284;DHT22;10301;50.832;4.080;2023-05-29T05:53:37;13.00;1.00
20284;DHT22;10301;50.832;4.080;2023-05-29T05:56:03;12.90;1.00
20284;DHT22;10301;50.832;4.080;2023-05-29T05:58:29;12.60;1.00
20284;DHT22;10301;50.832;4.080;2023-05-29T06:00:55;12.70;1.00
20284;DHT22;10301;50.832;4.080;2023-05-29T06:03:20;12.70;1.00
20284;DHT22;10301;50.832;4.080;2023-05-29T06:05:46;12.80;1.00
20284;DHT22;10301;50.832;4.080;2023-05-29T06:08:12;12.80;1.00
20284;DHT22;10301;50.832;4.080;2023-05-29T06:10:38;12.90;1.00
20284;DHT22;10301;50.832;4.080;2023-05-29T06:13:04;12.90;1.00
20284;DHT22;10301;50.832;4.080;2023-05-29T06:15:30;13.10;1.00
20284;DHT22;10301;50.832;4.080;2023-05-29T06:17:55;13.00;1.00
20284;DHT22;10301;50.832;4.080;2023-05-29T06:20:21;13.10;1.00
20284;DHT22;10301;50.832;4.080;2023-05-29T06:22:48;12.80;1.00
20284;DHT22;10301;50.832;4.080;2023-05-29T06:25:19;12.80;1.00
20284;DHT22;10301;50.832;4.080;2023-05-29T06:27:45;12.70;1.00
20284;DHT22;10301;50.832;4.080;2023-05-29T06:30:12;13.00;1.00
20284;DHT22;10301;50.832;4.080;2023-05-29T06:32:38;13.10;1.00
20284;DHT22;10301;50.832;4.080;2023-05-29T06:35:04;13.10;1.00
20284;DHT22;10301;50.832;4.080;2023-05-29T06:37:31;13.10;1.00
20284;DHT22;10301;50.832;4.080;2023-05-29T06:39:57;13.00;1.00
20284;DHT22;10301;50.832;4.080;2023-05-29T06:42:23;12.90;1.00
20284;DHT22;10301;50.832;4.080;2023-05-29T06:44:48;13.00;1.00
20284;DHT22;10301;50.832;4.080;2023-05-29T06:47:14;12.90;1.00
20284;DHT22;10301;50.832;4.080;2023-05-29T06:49:39;12.90;1.00
20284;DHT22;10301;50.832;4.080;2023-05-29T06:52:05;13.00;1.00
20284;DHT22;10301;50.832;4.080;2023-05-29T06:54:31;13.20;1.00
20284;DHT22;10301;50.832;4.080;2023-05-29T06:56:56;13.40;1.00
20284;DHT22;10301;50.832;4.080;2023-05-29T06:59:22;13.40;1.00
20284;DHT22;10301;50.832;4.080;2023-05-29T07:01:48;13.20;1.00
20284;DHT22;10301;50.832;4.080;2023-05-29T07:04:13;13.40;1.00
20284;DHT22;10301;50.832;4.080;2023-05-29T07:06:39;13.40;1.00
20284;DHT22;10301;50.832;4.080;2023-05-29T07:09:05;13.50;1.00
20284;DHT22;10301;50.832;4.080;2023-05-29T07:11:30;13.80;1.00
20284;DHT22;10301;50.832;4.080;2023-05-29T07:13:56;13.80;1.00
20284;DHT22;10301;50.832;4.080;2023-05-29T07:16:22;13.80;1.00
20284;DHT22;10301;50.832;4.080;2023-05-29T07:18:47;13.70;1.00
20284;DHT22;10301;50.832;4.080;2023-05-29T07:21:13;13.80;1.00
20284;DHT22;10301;50.832;4.080;2023-05-29T07:23:40;13.80;1.00
20284;DHT22;10301;50.832;4.080;2023-05-29T07:26:05;13.70;1.00
20284;DHT22;10301;50.832;4.080;2023-05-29T07:28:31;13.80;1.00
20284;DHT22;10301;50.832;4.080;2023-05-29T07:30:57;13.80;1.00
20284;DHT22;10301;50.832;4.080;2023-05-29T07:33:23;14.10;1.00
20284;DHT22;10301;50.832;4.080;2023-05-29T07:35:48;14.20;1.00
20284;DHT22;10301;50.832;4.080;2023-05-29T07:38:14;14.30;1.00
20284;DHT22;10301;50.832;4.080;2023-05-29T07:40:40;14.40;1.00
20284;DHT22;10301;50.832;4.080;2023-05-29T07:43:05;14.30;1.00
20284;DHT22;10301;50.832;4.080;2023-05-29T07:45:31;14.70;99.90
20284;DHT22;10301;50.832;4.080;2023-05-29T07:47:57;14.80;99.90
20284;DHT22;10301;50.832;4.080;2023-05-29T07:50:22;14.90;99.90
20284;DHT22;10301;50.832;4.080;2023-05-29T07:52:48;14.60;99.90
20284;DHT22;10301;50.832;4.080;2023-05-29T07:55:14;14.60;99.90
20284;DHT22;10301;50.832;4.080;2023-05-29T07:57:39;14.70;99.90
20284;DHT22;10301;50.832;4.080;2023-05-29T08:00:06;14.70;99.90
20284;DHT22;10301;50.832;4.080;2023-05-29T08:02:33;14.70;99.90
20284;DHT22;10301;50.832;4.080;2023-05-29T08:04:59;14.80;1.00
20284;DHT22;10301;50.832;4.080;2023-05-29T08:07:25;14.40;99.90
20284;DHT22;10301;50.832;4.080;2023-05-29T08:09:52;14.50;1.00
20284;DHT22;10301;50.832;4.080;2023-05-29T08:12:18;14.40;99.90
20284;DHT22;10301;50.832;4.080;2023-05-29T08:14:44;14.30;1.00
20284;DHT22;10301;50.832;4.080;2023-05-29T08:17:09;14.60;99.90
20284;DHT22;10301;50.832;4.080;2023-05-29T08:19:35;14.50;99.90
20284;DHT22;10301;50.832;4.080;2023-05-29T08:22:01;14.50;1.00
20284;DHT22;10301;50.832;4.080;2023-05-29T08:24:27;14.70;99.90
20284;DHT22;10301;50.832;4.080;2023-05-29T08:26:53;14.80;1.00
20284;DHT22;10301;50.832;4.080;2023-05-29T08:29:19;15.10;66.80
20284;DHT22;10301;50.832;4.080;2023-05-29T08:31:45;14.90;46.20
20284;DHT22;10301;50.832;4.080;2023-05-29T08:34:11;15.10;99.90
20284;DHT22;10301;50.832;4.080;2023-05-29T08:36:37;15.20;99.90
20284;DHT22;10301;50.832;4.080;2023-05-29T08:39:03;15.10;1.00
20284;DHT22;10301;50.832;4.080;2023-05-29T08:44:22;15.50;1.00
20284;DHT22;10301;50.832;4.080;2023-05-29T08:46:55;15.70;99.90
20284;DHT22;10301;50.832;4.080;2023-05-29T08:49:21;15.70;99.90
20284;DHT22;10301;50.832;4.080;2023-05-29T08:52:01;15.70;99.90
20284;DHT22;10301;50.832;4.080;2023-05-29T08:54:31;15.40;1.00
20284;DHT22;10301;50.832;4.080;2023-05-29T08:56:58;15.20;1.00
20284;DHT22;10301;50.832;4.080;2023-05-29T08:59:25;15.00;1.00
20284;DHT22;10301;50.832;4.080;2023-05-29T09:01:51;15.20;1.00
20284;DHT22;10301;50.832;4.080;2023-05-29T09:04:17;15.70;1.00
20284;DHT22;10301;50.832;4.080;2023-05-29T09:06:44;15.50;1.00
20284;DHT22;10301;50.832;4.080;2023-05-29T09:09:10;15.30;1.00
20284;DHT22;10301;50.832;4.080;2023-05-29T09:11:36;15.40;1.00
20284;DHT22;10301;50.832;4.080;2023-05-29T09:14:02;15.50;1.00
20284;DHT22;10301;50.832;4.080;2023-05-29T09:16:28;15.60;99.90
20284;DHT22;10301;50.832;4.080;2023-05-29T09:19:04;15.60;99.90
20284;DHT22;10301;50.832;4.080;2023-05-29T09:21:32;15.70;99.90
20284;DHT22;10301;50.832;4.080;2023-05-29T09:24:05;16.00;1.00
20284;DHT22;10301;50.832;4.080;2023-05-29T09:26:31;16.10;1.00
20284;DHT22;10301;50.832;4.080;2023-05-29T09:28:57;16.10;1.00
20284;DHT22;10301;50.832;4.080;2023-05-29T09:31:23;16.10;1.00
20284;DHT22;10301;50.832;4.080;2023-05-29T09:33:50;16.20;99.90
20284;DHT22;10301;50.832;4.080;2023-05-29T09:36:22;16.20;1.00
20284;DHT22;10301;50.832;4.080;2023-05-29T09:38:49;16.30;1.00
20284;DHT22;10301;50.832;4.080;2023-05-29T09:41:21;16.10;1.00
20284;DHT22;10301;50.832;4.080;2023-05-29T09:43:49;16.00;1.00
20284;DHT22;10301;50.832;4.080;2023-05-29T09:46:17;16.10;1.00
20284;DHT22;10301;50.832;4.080;2023-05-29T09:48:44;16.30;1.00
20284;DHT22;10301;50.832;4.080;2023-05-29T09:51:23;16.50;1.00
20284;DHT22;10301;50.832;4.080;2023-05-29T09:53:49;16.80;1.00
20284;DHT22;10301;50.832;4.080;2023-05-29T09:56:16;17.10;1.00
20284;DHT22;10301;50.832;4.080;2023-05-29T09:58:43;17.30;29.10
20284;DHT22;10301;50.832;4.080;2023-05-29T10:01:16;17.50;1.00
20284;DHT22;10301;50.832;4.080;2023-05-29T10:03:42;17.40;1.00
20284;DHT22;10301;50.832;4.080;2023-05-29T10:06:10;17.30;1.00
20284;DHT22;10301;50.832;4.080;2023-05-29T10:08:45;17.50;99.90
20284;DHT22;10301;50.832;4.080;2023-05-29T10:11:14;17.40;99.90
20284;DHT22;10301;50.832;4.080;2023-05-29T10:13:42;17.30;99.90
20284;DHT22;10301;50.832;4.080;2023-05-29T10:16:14;17.30;1.00
20284;DHT22;10301;50.832;4.080;2023-05-29T10:18:44;17.10;1.00
20284;DHT22;10301;50.832;4.080;2023-05-29T10:21:21;17.40;1.00
20284;DHT22;10301;50.832;4.080;2023-05-29T10:23:51;17.50;99.90
20284;DHT22;10301;50.832;4.080;2023-05-29T10:26:26;17.30;1.00
20284;DHT22;10301;50.832;4.080;2023-05-29T10:31:23;17.20;1.00
20284;DHT22;10301;50.832;4.080;2023-05-29T10:33:53;17.50;1.00
20284;DHT22;10301;50.832;4.080;2023-05-29T10:36:22;17.40;1.00
20284;DHT22;10301;50.832;4.080;2023-05-29T10:38:52;17.50;1.00
20284;DHT22;10301;50.832;4.080;2023-05-29T10:43:57;17.10;1.00
20284;DHT22;10301;50.832;4.080;2023-05-29T10:49:17;17.30;99.90
20284;DHT22;10301;50.832;4.080;2023-05-29T10:51:43;17.30;99.90
20284;DHT22;10301;50.832;4.080;2023-05-29T10:54:09;17.50;99.90
20284;DHT22;10301;50.832;4.080;2023-05-29T10:56:35;17.70;1.00
20284;DHT22;10301;50.832;4.080;2023-05-29T10:59:01;17.80;99.90
20284;DHT22;10301;50.832;4.080;2023-05-29T11:01:31;17.80;20.90
20284;DHT22;10301;50.832;4.080;2023-05-29T11:06:48;17.70;1.00
20284;DHT22;10301;50.832;4.080;2023-05-29T11:12:25;17.70;1.00
20284;DHT22;10301;50.832;4.080;2023-05-29T11:15:08;17.50;1.00
20284;DHT22;10301;50.832;4.080;2023-05-29T11:20:06;17.90;1.00
20284;DHT22;10301;50.832;4.080;2023-05-29T11:25:26;18.40;99.90
20284;DHT22;10301;50.832;4.080;2023-05-29T11:27:52;18.10;99.90
20284;DHT22;10301;50.832;4.080;2023-05-29T11:30:19;18.00;1.00
20284;DHT22;10301;50.832;4.080;2023-05-29T11:32:46;18.10;1.00
20284;DHT22;10301;50.832;4.080;2023-05-29T11:35:21;18.30;1.00
20284;DHT22;10301;50.832;4.080;2023-05-29T11:37:47;18.10;1.00
20284;DHT22;10301;50.832;4.080;2023-05-29T11:40:14;18.10;1.00
20284;DHT22;10301;50.832;4.080;2023-05-29T11:42:45;18.10;1.00
20284;DHT22;10301;50.832;4.080;2023-05-29T11:45:16;18.30;1.00
20284;DHT22;10301;50.832;4.080;2023-05-29T11:47:59;18.40;1.00
20284;DHT22;10301;50.832;4.080;2023-05-29T11:50:27;18.50;99.90
20284;DHT22;10301;50.832;4.080;2023-05-29T11:52:53;18.40;22.50
20284;DHT22;10301;50.832;4.080;2023-05-29T11:55:20;18.40;1.00
20284;DHT22;10301;50.832;4.080;2023-05-29T11:57:50;18.20;1.00
20284;DHT22;10301;50.832;4.080;2023-05-29T12:00:17;18.50;99.90
20284;DHT22;10301;50.832;4.080;2023-05-29T12:02:44;18.60;1.00
20284;DHT22;10301;50.832;4.080;2023-05-29T12:05:16;18.70;1.00
20284;DHT22;10301;50.832;4.080;2023-05-29T12:07:54;18.60;99.90
20284;DHT22;10301;50.832;4.080;2023-05-29T12:10:23;18.60;1.00
20284;DHT22;10301;50.832;4.080;2023-05-29T12:12:54;19.00;1.00
20284;DHT22;10301;50.832;4.080;2023-05-29T12:15:20;19.00;99.90
20284;DHT22;10301;50.832;4.080;2023-05-29T12:17:48;18.80;1.00
20284;DHT22;10301;50.832;4.080;2023-05-29T12:20:14;18.70;1.00
20284;DHT22;10301;50.832;4.080;2023-05-29T12:22:41;19.00;1.00
20284;DHT22;10301;50.832;4.080;2023-05-29T12:25:15;18.90;1.00
20284;DHT22;10301;50.832;4.080;2023-05-29T12:27:46;19.40;1.00
20284;DHT22;10301;50.832;4.080;2023-05-29T12:30:21;19.40;1.00
20284;DHT22;10301;50.832;4.080;2023-05-29T12:32:50;19.80;1.00
20284;DHT22;10301;50.832;4.080;2023-05-29T12:35:23;19.60;1.00
20284;DHT22;10301;50.832;4.080;2023-05-29T12:38:00;19.50;1.00
20284;DHT22;10301;50.832;4.080;2023-05-29T12:40:29;19.60;1.00
20284;DHT22;10301;50.832;4.080;2023-05-29T12:43:00;19.70;1.00
20284;DHT22;10301;50.832;4.080;2023-05-29T12:45:31;19.90;99.90
20284;DHT22;10301;50.832;4.080;2023-05-29T12:50:27;19.30;99.90
20284;DHT22;10301;50.832;4.080;2023-05-29T12:55:31;19.60;99.90
20284;DHT22;10301;50.832;4.080;2023-05-29T12:57:58;19.70;99.90
20284;DHT22;10301;50.832;4.080;2023-05-29T13:00:25;19.90;99.90
20284;DHT22;10301;50.832;4.080;2023-05-29T13:02:51;19.80;99.90
20284;DHT22;10301;50.832;4.080;2023-05-29T13:05:17;20.00;99.90
20284;DHT22;10301;50.832;4.080;2023-05-29T13:07:47;20.10;1.00
20284;DHT22;10301;50.832;4.080;2023-05-29T13:10:13;20.40;1.00
20284;DHT22;10301;50.832;4.080;2023-05-29T13:12:39;20.40;1.00
20284;DHT22;10301;50.832;4.080;2023-05-29T13:15:05;20.70;1.00
20284;DHT22;10301;50.832;4.080;2023-05-29T13:17:32;20.40;1.00
20284;DHT22;10301;50.832;4.080;2023-05-29T13:19:58;20.40;1.00
20284;DHT22;10301;50.832;4.080;2023-05-29T13:22:23;20.50;1.00
20284;DHT22;10301;50.832;4.080;2023-05-29T13:24:56;20.50;1.00
20284;DHT22;10301;50.832;4.080;2023-05-29T13:27:22;20.40;1.00
20284;DHT22;10301;50.832;4.080;2023-05-29T13:29:49;20.30;1.00
20284;DHT22;10301;50.832;4.080;2023-05-29T13:32:15;20.20;1.00
20284;DHT22;10301;50.832;4.080;2023-05-29T13:34:41;20.40;1.00
20284;DHT22;10301;50.832;4.080;2023-05-29T13:37:07;20.20;1.00
20284;DHT22;10301;50.832;4.080;2023-05-29T13:39:32;20.30;99.90
20284;DHT22;10301;50.832;4.080;2023-05-29T13:41:58;20.40;1.00
20284;DHT22;10301;50.832;4.080;2023-05-29T13:44:24;20.70;1.00
20284;DHT22;10301;50.832;4.080;2023-05-29T13:46:49;20.80;1.00
20284;DHT22;10301;50.832;4.080;2023-05-29T13:49:16;20.50;1.00
20284;DHT22;10301;50.832;4.080;2023-05-29T13:51:41;20.60;1.00
20284;DHT22;10301;50.832;4.080;2023-05-29T13:54:07;20.50;99.90
20284;DHT22;10301;50.832;4.080;2023-05-29T13:56:33;20.60;1.00
20284;DHT22;10301;50.832;4.080;2023-05-29T13:58:58;20.40;1.00
20284;DHT22;10301;50.832;4.080;2023-05-29T14:01:29;20.60;1.00
20284;DHT22;10301;50.832;4.080;2023-05-29T14:03:56;20.40;1.00
20284;DHT22;10301;50.832;4.080;2023-05-29T14:06:21;20.50;1.00
20284;DHT22;10301;50.832;4.080;2023-05-29T14:08:47;20.90;1.00
20284;DHT22;10301;50.832;4.080;2023-05-29T14:11:13;20.80;1.00
20284;DHT22;10301;50.832;4.080;2023-05-29T14:13:38;20.50;1.00
20284;DHT22;10301;50.832;4.080;2023-05-29T14:16:04;20.70;1.00
20284;DHT22;10301;50.832;4.080;2023-05-29T14:18:30;21.10;1.00
20284;DHT22;10301;50.832;4.080;2023-05-29T14:20:56;21.10;1.00
20284;DHT22;10301;50.832;4.080;2023-05-29T14:23:21;21.20;1.00
20284;DHT22;10301;50.832;4.080;2023-05-29T14:25:47;21.60;99.90
20284;DHT22;10301;50.832;4.080;2023-05-29T14:28:13;21.60;1.00
20284;DHT22;10301;50.832;4.080;2023-05-29T14:30:39;21.70;99.90
20284;DHT22;10301;50.832;4.080;2023-05-29T14:33:04;21.40;1.00
20284;DHT22;10301;50.832;4.080;2023-05-29T14:35:30;21.40;1.00
20284;DHT22;10301;50.832;4.080;2023-05-29T14:37:57;21.50;1.00
20284;DHT22;10301;50.832;4.080;2023-05-29T14:40:23;21.80;1.00
20284;DHT22;10301;50.832;4.080;2023-05-29T14:42:48;21.80;1.00
20284;DHT22;10301;50.832;4.080;2023-05-29T14:45:14;21.60;1.00
20284;DHT22;10301;50.832;4.080;2023-05-29T14:47:40;21.70;1.00
20284;DHT22;10301;50.832;4.080;2023-05-29T14:50:07;22.00;1.00
20284;DHT22;10301;50.832;4.080;2023-05-29T14:52:33;21.70;1.00
20284;DHT22;10301;50.832;4.080;2023-05-29T14:55:04;21.70;1.00
20284;DHT22;10301;50.832;4.080;2023-05-29T14:57:30;21.20;1.00
20284;DHT22;10301;50.832;4.080;2023-05-29T14:59:59;21.20;1.00
20284;DHT22;10301;50.832;4.080;2023-05-29T15:02:24;21.40;1.00
20284;DHT22;10301;50.832;4.080;2023-05-29T15:04:50;21.30;1.00
20284;DHT22;10301;50.832;4.080;2023-05-29T15:07:17;21.20;1.00
20284;DHT22;10301;50.832;4.080;2023-05-29T15:09:43;21.60;1.00
20284;DHT22;10301;50.832;4.080;2023-05-29T15:12:09;21.80;99.90
20284;DHT22;10301;50.832;4.080;2023-05-29T15:14:35;21.30;99.90
20284;DHT22;10301;50.832;4.080;2023-05-29T15:17:01;21.20;99.90
20284;DHT22;10301;50.832;4.080;2023-05-29T15:19:27;21.30;99.90
20284;DHT22;10301;50.832;4.080;2023-05-29T15:21:53;21.50;99.90
20284;DHT22;10301;50.832;4.080;2023-05-29T15:24:18;21.30;99.90
20284;DHT22;10301;50.832;4.080;2023-05-29T15:26:44;21.20;1.00
20284;DHT22;10301;50.832;4.080;2023-05-29T15:29:10;21.10;99.90
20284;DHT22;10301;50.832;4.080;2023-05-29T15:31:36;21.50;99.90
20284;DHT22;10301;50.832;4.080;2023-05-29T15:34:02;21.20;99.90
20284;DHT22;10301;50.832;4.080;2023-05-29T15:36:28;21.30;99.90
20284;DHT22;10301;50.832;4.080;2023-05-29T15:38:54;21.20;99.90
20284;DHT22;10301;50.832;4.080;2023-05-29T15:41:20;21.00;99.90
20284;DHT22;10301;50.832;4.080;2023-05-29T15:43:46;21.10;99.90
20284;DHT22;10301;50.832;4.080;2023-05-29T15:46:12;21.50;99.90
20284;DHT22;10301;50.832;4.080;2023-05-29T15:48:37;20.70;99.90
20284;DHT22;10301;50.832;4.080;2023-05-29T15:51:03;20.70;99.90
20284;DHT22;10301;50.832;4.080;2023-05-29T15:53:29;21.10;99.90
20284;DHT22;10301;50.832;4.080;2023-05-29T15:55:55;21.00;99.90
20284;DHT22;10301;50.832;4.080;2023-05-29T15:58:20;21.00;92.00
20284;DHT22;10301;50.832;4.080;2023-05-29T16:00:47;20.60;99.90
20284;DHT22;10301;50.832;4.080;2023-05-29T16:03:13;20.30;99.90
20284;DHT22;10301;50.832;4.080;2023-05-29T16:05:38;20.30;97.00